createdAt,value
2023-05-16T00:01:37.804Z,2.75
2023-05-16T00:04:07.552Z,2.60
2023-05-16T00:06:36.186Z,2.90
2023-05-16T00:09:04.108Z,3.30
2023-05-16T00:11:31.908Z,2.80
2023-05-16T00:14:01.407Z,2.75
2023-05-16T00:16:30.065Z,2.78
2023-05-16T00:18:59.899Z,3.00
2023-05-16T00:21:29.250Z,2.67
2023-05-16T00:23:57.041Z,3.53
2023-05-16T00:26:24.754Z,3.27
2023-05-16T00:28:52.570Z,3.30
2023-05-16T00:31:20.620Z,3.92
2023-05-16T00:33:48.416Z,5.27
2023-05-16T00:36:16.109Z,4.70
2023-05-16T00:38:45.195Z,5.38
2023-05-16T00:41:13.096Z,5.80
2023-05-16T00:43:41.207Z,5.47
2023-05-16T00:46:09.084Z,5.63
2023-05-16T00:48:36.985Z,5.47
2023-05-16T00:51:09.217Z,5.47
2023-05-16T00:53:37.544Z,6.75
2023-05-16T00:56:07.531Z,6.00
2023-05-16T00:58:35.470Z,5.53
2023-05-16T01:01:04.077Z,4.45
2023-05-16T01:03:32.530Z,4.32
2023-05-16T01:06:01.020Z,3.92
2023-05-16T01:08:28.863Z,3.45
2023-05-16T01:11:03.833Z,3.83
2023-05-16T01:13:42.715Z,3.30
2023-05-16T01:16:17.347Z,3.05
2023-05-16T01:18:54.966Z,3.38
2023-05-16T01:21:43.617Z,4.95
2023-05-16T01:24:16.094Z,6.68
2023-05-16T01:26:47.695Z,7.88
2023-05-16T01:29:16.544Z,10.38
2023-05-16T01:31:44.383Z,9.60
2023-05-16T01:34:13.604Z,11.35
2023-05-16T01:36:49.225Z,12.13
2023-05-16T01:39:23.536Z,12.43
2023-05-16T01:42:02.150Z,12.98
2023-05-16T01:44:34.530Z,11.80
2023-05-16T01:47:05.731Z,11.70
2023-05-16T01:49:37.516Z,10.55
2023-05-16T01:52:10.300Z,9.88
2023-05-16T01:54:40.554Z,7.43
2023-05-16T01:57:10.664Z,6.57
2023-05-16T01:59:39.949Z,5.97
2023-05-16T02:02:07.753Z,5.57
2023-05-16T02:04:35.529Z,5.80
2023-05-16T02:07:03.379Z,5.72
2023-05-16T02:09:31.297Z,7.50
2023-05-16T02:12:00.340Z,7.18
2023-05-16T02:14:29.537Z,7.25
2023-05-16T02:16:57.421Z,7.00
2023-05-16T02:19:25.216Z,5.55
2023-05-16T02:21:52.965Z,5.18
2023-05-16T02:24:21.215Z,4.63
2023-05-16T02:26:49.044Z,4.13
2023-05-16T02:29:17.051Z,4.07
2023-05-16T02:31:46.347Z,3.85
2023-05-16T02:34:14.132Z,3.40
2023-05-16T02:36:43.410Z,3.28
2023-05-16T02:39:11.343Z,2.75
2023-05-16T02:41:39.096Z,2.78
2023-05-16T02:44:06.832Z,3.42
2023-05-16T02:46:35.807Z,3.13
2023-05-16T02:49:06.443Z,2.75
2023-05-16T02:51:34.208Z,2.63
2023-05-16T02:54:01.938Z,2.50
2023-05-16T02:56:29.975Z,2.60
2023-05-16T02:58:57.697Z,2.67
2023-05-16T03:01:25.516Z,2.83
2023-05-16T03:03:53.465Z,2.58
2023-05-16T03:06:23.008Z,3.17
2023-05-16T03:08:50.723Z,3.58
2023-05-16T03:11:20.851Z,4.15
2023-05-16T03:13:48.631Z,3.03
2023-05-16T03:16:16.729Z,3.15
2023-05-16T03:18:44.767Z,3.50
2023-05-16T03:21:12.542Z,3.83
2023-05-16T03:23:41.655Z,3.17
2023-05-16T03:26:09.413Z,3.22
2023-05-16T03:28:38.208Z,3.83
2023-05-16T03:31:06.301Z,3.10
2023-05-16T03:33:34.116Z,3.33
2023-05-16T03:36:02.687Z,3.85
2023-05-16T03:38:30.775Z,3.03
2023-05-16T03:40:59.958Z,3.00
2023-05-16T03:43:27.728Z,3.08
2023-05-16T03:45:55.966Z,2.85
2023-05-16T03:48:23.951Z,3.30
2023-05-16T03:50:52.302Z,3.70
2023-05-16T03:53:20.101Z,3.03
2023-05-16T03:55:48.855Z,3.50
2023-05-16T03:58:18.200Z,3.30
2023-05-16T04:00:46.836Z,3.67
2023-05-16T04:03:14.852Z,3.28
2023-05-16T04:05:42.769Z,3.22
2023-05-16T04:08:10.652Z,3.50
2023-05-16T04:10:38.553Z,2.90
2023-05-16T04:13:06.480Z,3.42
2023-05-16T04:15:35.648Z,3.53
2023-05-16T04:18:05.126Z,2.95
2023-05-16T04:20:33.204Z,3.03
2023-05-16T04:23:01.085Z,3.88
2023-05-16T04:25:29.187Z,2.80
2023-05-16T04:27:57.337Z,3.22
2023-05-16T04:30:25.136Z,3.33
2023-05-16T04:32:54.250Z,2.83
2023-05-16T04:35:23.037Z,3.13
2023-05-16T04:37:51.173Z,3.00
2023-05-16T04:40:18.950Z,3.03
2023-05-16T04:42:46.764Z,2.93
2023-05-16T04:45:14.662Z,2.85
2023-05-16T04:47:42.417Z,3.47
2023-05-16T04:50:12.185Z,3.40
2023-05-16T04:52:39.856Z,3.08
2023-05-16T04:55:08.507Z,2.75
2023-05-16T04:57:36.505Z,3.20
2023-05-16T05:00:08.901Z,2.88
2023-05-16T05:02:36.713Z,3.10
2023-05-16T05:05:04.945Z,3.88
2023-05-16T05:07:34.180Z,2.67
2023-05-16T05:10:02.082Z,3.25
2023-05-16T05:12:29.876Z,3.40
2023-05-16T05:14:57.605Z,3.20
2023-05-16T05:17:25.482Z,2.33
2023-05-16T05:19:53.405Z,3.55
2023-05-16T05:22:21.168Z,2.80
2023-05-16T05:24:50.242Z,3.40
2023-05-16T05:27:17.994Z,2.95
2023-05-16T05:29:45.856Z,2.43
2023-05-16T05:32:14.088Z,2.72
2023-05-16T05:34:41.923Z,3.23
2023-05-16T05:37:09.810Z,2.92
2023-05-16T05:39:37.641Z,2.72
2023-05-16T05:42:07.441Z,4.18
2023-05-16T05:44:35.178Z,2.67
2023-05-16T05:47:03.028Z,3.20
2023-05-16T05:49:31.302Z,2.75
2023-05-16T05:51:59.082Z,3.08
2023-05-16T05:54:26.899Z,2.78
2023-05-16T05:56:54.631Z,3.00
2023-05-16T05:59:23.708Z,2.60
2023-05-16T06:01:52.849Z,3.17
2023-05-16T06:04:21.054Z,3.00
2023-05-16T06:06:49.018Z,3.17
2023-05-16T06:09:16.798Z,2.55
2023-05-16T06:11:45.932Z,2.70
2023-05-16T06:14:15.180Z,2.97
2023-05-16T06:16:44.847Z,3.45
2023-05-16T06:19:16.031Z,2.63
2023-05-16T06:21:44.361Z,2.53
2023-05-16T06:24:12.446Z,2.73
2023-05-16T06:26:40.431Z,2.53
2023-05-16T06:29:08.211Z,3.50
2023-05-16T06:31:36.007Z,2.70
2023-05-16T06:34:05.219Z,2.57
2023-05-16T06:36:33.165Z,3.07
2023-05-16T06:39:00.983Z,2.55
2023-05-16T06:41:28.857Z,1.80
2023-05-16T06:43:56.601Z,2.45
2023-05-16T06:46:24.472Z,3.58
2023-05-16T06:48:52.326Z,2.53
2023-05-16T06:51:21.458Z,2.60
2023-05-16T06:53:49.236Z,2.88
2023-05-16T06:56:16.957Z,2.95
2023-05-16T06:58:44.827Z,2.38
2023-05-16T07:01:12.708Z,2.30
2023-05-16T07:03:40.555Z,2.30
2023-05-16T07:06:09.149Z,2.17
2023-05-16T07:08:38.317Z,2.17
2023-05-16T07:11:06.384Z,2.03
2023-05-16T07:13:35.925Z,2.03
2023-05-16T07:16:04.259Z,1.80
2023-05-16T07:18:32.174Z,1.83
2023-05-16T07:20:59.975Z,2.40
2023-05-16T07:23:27.930Z,1.60
2023-05-16T07:25:57.182Z,2.10
2023-05-16T07:28:25.100Z,2.05
2023-05-16T07:30:52.853Z,1.80
2023-05-16T07:33:20.693Z,2.28
2023-05-16T07:35:48.563Z,2.73
2023-05-16T07:38:16.339Z,2.43
2023-05-16T07:40:44.302Z,1.90
2023-05-16T07:43:13.516Z,1.75
2023-05-16T07:45:41.522Z,1.80
2023-05-16T07:48:09.903Z,2.10
2023-05-16T07:50:37.683Z,2.17
2023-05-16T07:53:05.757Z,1.97
2023-05-16T07:55:33.615Z,1.95
2023-05-16T07:58:01.492Z,1.98
2023-05-16T08:00:30.918Z,1.73
2023-05-16T08:02:59.080Z,2.20
2023-05-16T08:05:27.266Z,2.15
2023-05-16T08:07:55.296Z,1.50
2023-05-16T08:10:23.339Z,1.63
2023-05-16T08:12:51.208Z,2.00
2023-05-16T08:15:19.269Z,1.95
2023-05-16T08:17:51.389Z,1.60
2023-05-16T08:20:19.510Z,1.48
2023-05-16T08:22:47.265Z,1.58
2023-05-16T08:25:15.158Z,1.63
2023-05-16T08:27:42.975Z,1.70
2023-05-16T08:30:12.078Z,1.55
2023-05-16T08:32:40.032Z,3.53
2023-05-16T08:35:11.000Z,1.77
2023-05-16T08:37:38.941Z,1.40
2023-05-16T08:40:10.851Z,1.60
2023-05-16T08:42:39.162Z,1.60
2023-05-16T08:45:08.700Z,2.05
2023-05-16T08:47:41.437Z,1.60
2023-05-16T08:50:11.666Z,2.17
2023-05-16T08:52:40.456Z,1.80
2023-05-16T08:55:11.981Z,1.75
2023-05-16T08:57:40.525Z,2.20
2023-05-16T09:00:12.223Z,1.40
2023-05-16T09:02:41.163Z,1.40
2023-05-16T09:05:12.512Z,1.50
2023-05-16T09:07:40.594Z,1.85
2023-05-16T09:10:09.511Z,2.00
2023-05-16T09:12:37.971Z,2.53
2023-05-16T09:15:08.310Z,2.08
2023-05-16T09:17:39.915Z,2.20
2023-05-16T09:20:15.797Z,2.15
2023-05-16T09:22:52.744Z,2.30
2023-05-16T09:25:30.349Z,2.00
2023-05-16T09:28:01.153Z,2.30
2023-05-16T09:30:31.036Z,2.15
2023-05-16T09:32:59.697Z,2.08
2023-05-16T09:37:59.853Z,2.30
2023-05-16T09:40:27.654Z,1.88
2023-05-16T09:43:03.715Z,2.40
2023-05-16T09:45:31.882Z,1.88
2023-05-16T09:48:05.555Z,1.90
2023-05-16T09:50:36.289Z,1.42
2023-05-16T09:53:04.798Z,2.10
2023-05-16T09:55:33.602Z,2.10
2023-05-16T09:58:01.483Z,1.92
2023-05-16T10:00:32.083Z,2.13
2023-05-16T10:03:04.290Z,2.50
2023-05-16T10:05:35.785Z,1.95
2023-05-16T10:08:05.280Z,2.78
2023-05-16T10:10:37.435Z,1.90
2023-05-16T10:13:08.008Z,2.00
2023-05-16T10:15:43.458Z,1.75
2023-05-16T10:18:13.470Z,1.80
2023-05-16T10:20:43.933Z,1.80
2023-05-16T10:23:17.133Z,1.58
2023-05-16T10:25:46.424Z,1.65
2023-05-16T10:28:14.550Z,1.60
2023-05-16T10:30:44.233Z,1.70
2023-05-16T10:33:13.396Z,1.88
2023-05-16T10:35:43.217Z,1.65
2023-05-16T10:38:12.568Z,1.42
2023-05-16T10:40:41.732Z,1.60
2023-05-16T10:43:10.496Z,1.40
2023-05-16T10:45:42.977Z,1.60
2023-05-16T10:48:15.388Z,1.63
2023-05-16T10:50:45.902Z,1.60
2023-05-16T10:53:16.232Z,1.70
2023-05-16T10:55:52.233Z,1.27
2023-05-16T10:58:25.184Z,1.20
2023-05-16T11:01:21.641Z,1.70
2023-05-16T11:04:10.332Z,1.30
2023-05-16T11:06:53.071Z,1.30
2023-05-16T11:09:23.714Z,1.48
2023-05-16T11:12:02.957Z,1.70
2023-05-16T11:14:38.259Z,1.65
2023-05-16T11:17:09.541Z,1.52
2023-05-16T11:19:42.660Z,1.30
2023-05-16T11:22:23.187Z,1.55
2023-05-16T11:24:53.887Z,1.88
2023-05-16T11:27:27.925Z,1.92
2023-05-16T11:29:57.719Z,1.95
2023-05-16T11:32:26.600Z,2.25
2023-05-16T11:34:55.483Z,1.55
2023-05-16T11:37:24.874Z,1.45
2023-05-16T11:39:52.839Z,1.70
2023-05-16T11:42:20.733Z,1.73
2023-05-16T11:44:48.547Z,1.80
2023-05-16T11:47:16.456Z,1.80
2023-05-16T11:49:44.438Z,2.30
2023-05-16T11:52:12.263Z,1.90
2023-05-16T11:54:42.396Z,2.40
2023-05-16T11:57:10.431Z,1.83
2023-05-16T11:59:38.504Z,1.83
2023-05-16T12:02:07.016Z,2.22
2023-05-16T12:04:35.134Z,1.90
2023-05-16T12:07:03.950Z,1.88
2023-05-16T12:09:31.786Z,1.80
2023-05-16T12:12:01.068Z,2.30
2023-05-16T12:14:28.963Z,1.92
2023-05-16T12:16:57.036Z,1.60
2023-05-16T12:19:25.378Z,1.40
2023-05-16T12:21:54.717Z,1.67
2023-05-16T12:24:22.686Z,1.70
2023-05-16T12:26:50.625Z,1.38
2023-05-16T12:29:25.067Z,1.67
2023-05-16T12:31:54.701Z,1.30
2023-05-16T12:34:23.252Z,1.30
2023-05-16T12:36:54.770Z,1.10
2023-05-16T12:39:23.518Z,1.30
2023-05-16T12:41:51.486Z,1.23
2023-05-16T12:44:23.505Z,1.60
2023-05-16T12:46:52.739Z,1.50
2023-05-16T12:49:22.097Z,1.30
2023-05-16T12:51:51.014Z,1.23
2023-05-16T12:54:18.957Z,1.17
2023-05-16T12:56:46.896Z,1.38
2023-05-16T12:59:14.712Z,1.30
2023-05-16T13:01:45.925Z,1.35
2023-05-16T13:04:16.794Z,1.90
2023-05-16T13:06:58.273Z,1.52
2023-05-16T13:09:32.082Z,1.63
2023-05-16T13:12:00.608Z,1.25
2023-05-16T13:14:28.604Z,1.48
2023-05-16T13:16:57.770Z,1.20
2023-05-16T13:19:25.988Z,1.20
2023-05-16T13:21:53.986Z,1.45
2023-05-16T13:24:21.742Z,1.50
2023-05-16T13:26:49.634Z,1.75
2023-05-16T13:29:17.442Z,0.95
2023-05-16T13:31:45.452Z,1.25
2023-05-16T13:34:14.837Z,1.10
2023-05-16T13:36:53.865Z,1.60
2023-05-16T13:39:22.170Z,1.27
2023-05-16T13:41:50.264Z,1.20
2023-05-16T13:44:18.052Z,1.20
2023-05-16T13:46:45.946Z,1.50
2023-05-16T13:49:15.124Z,1.23
2023-05-16T13:51:42.904Z,1.33
2023-05-16T13:54:10.718Z,1.00
2023-05-16T13:56:38.756Z,1.20
2023-05-16T13:59:07.445Z,3.05
2023-05-16T14:01:36.528Z,1.10
2023-05-16T14:04:04.881Z,1.05
2023-05-16T14:06:34.504Z,1.40
2023-05-16T14:09:03.344Z,0.88
2023-05-16T14:11:31.374Z,1.27
2023-05-16T14:13:59.571Z,1.00
2023-05-16T14:16:27.685Z,1.02
2023-05-16T14:18:55.539Z,0.65
2023-05-16T14:21:23.363Z,1.25
2023-05-16T14:23:52.512Z,0.90
2023-05-16T14:26:22.708Z,1.45
2023-05-16T14:28:50.779Z,0.90
2023-05-16T14:31:18.976Z,1.17
2023-05-16T14:33:46.836Z,1.23
2023-05-16T14:36:14.777Z,1.42
2023-05-16T14:38:42.744Z,1.17
2023-05-16T14:41:11.871Z,1.48
2023-05-16T14:43:39.676Z,1.30
2023-05-16T14:46:07.485Z,1.58
2023-05-16T14:48:35.285Z,1.50
2023-05-16T14:51:03.073Z,1.38
2023-05-16T14:53:30.828Z,1.40
2023-05-16T14:55:58.618Z,1.33
2023-05-16T14:58:28.824Z,2.17
2023-05-16T15:00:56.923Z,1.63
2023-05-16T15:03:24.912Z,1.50
2023-05-16T15:05:53.474Z,1.15
2023-05-16T15:08:22.294Z,2.00
2023-05-16T15:10:50.136Z,2.05
2023-05-16T15:13:18.019Z,1.60
2023-05-16T15:15:56.293Z,1.50
2023-05-16T15:18:26.893Z,1.33
2023-05-16T15:20:54.689Z,1.45
2023-05-16T15:23:22.444Z,1.40
2023-05-16T15:25:52.259Z,1.50
2023-05-16T15:28:22.366Z,1.40
2023-05-16T15:30:52.079Z,1.50
2023-05-16T15:33:19.846Z,1.92
2023-05-16T15:35:48.460Z,1.45
2023-05-16T15:38:16.361Z,2.58
2023-05-16T15:40:44.201Z,1.50
2023-05-16T15:43:11.999Z,1.55
2023-05-16T15:45:40.596Z,2.08
2023-05-16T15:48:09.988Z,2.00
2023-05-16T15:50:37.830Z,1.60
2023-05-16T15:53:05.827Z,1.40
2023-05-16T15:55:33.618Z,1.63
2023-05-16T15:58:01.424Z,2.10
2023-05-16T16:00:29.196Z,2.05
2023-05-16T16:02:56.984Z,1.70
2023-05-16T16:05:26.277Z,1.90
2023-05-16T16:07:54.148Z,1.95
2023-05-16T16:10:22.726Z,1.55
2023-05-16T16:13:01.188Z,1.83
2023-05-16T16:15:32.617Z,1.60
2023-05-16T16:18:01.275Z,1.85
2023-05-16T16:20:30.511Z,1.92
2023-05-16T16:22:58.750Z,1.50
2023-05-16T16:25:26.893Z,1.65
2023-05-16T16:27:54.870Z,2.00
2023-05-16T16:30:22.707Z,1.55
2023-05-16T16:32:50.608Z,1.70
2023-05-16T16:35:18.637Z,1.50
2023-05-16T16:37:54.816Z,1.95
2023-05-16T16:40:33.313Z,1.98
2023-05-16T16:43:01.339Z,1.95
2023-05-16T16:45:29.543Z,2.10
2023-05-16T16:47:58.042Z,1.67
2023-05-16T16:50:26.313Z,1.40
2023-05-16T16:52:55.543Z,1.70
2023-05-16T16:55:23.316Z,2.00
2023-05-16T16:57:51.146Z,1.83
2023-05-16T17:00:19.807Z,2.22
2023-05-16T17:02:47.637Z,2.00
2023-05-16T17:05:15.828Z,1.73
2023-05-16T17:07:44.553Z,1.70
2023-05-16T17:10:13.715Z,1.45
2023-05-16T17:12:48.920Z,1.77
2023-05-16T17:15:17.336Z,1.80
2023-05-16T17:17:45.728Z,1.98
2023-05-16T17:20:14.143Z,1.70
2023-05-16T17:22:42.030Z,1.70
2023-05-16T17:25:10.846Z,1.40
2023-05-16T17:27:40.751Z,1.73
2023-05-16T17:30:10.467Z,2.00
2023-05-16T17:32:39.834Z,1.67
2023-05-16T17:35:08.078Z,1.58
2023-05-16T17:37:35.886Z,1.50
2023-05-16T17:40:05.972Z,2.05
2023-05-16T17:42:33.850Z,2.38
2023-05-16T17:45:04.749Z,1.83
2023-05-16T17:47:33.135Z,2.33
2023-05-16T17:50:01.194Z,1.77
2023-05-16T17:52:29.373Z,1.73
2023-05-16T17:54:57.201Z,1.97
2023-05-16T17:57:25.060Z,1.95
2023-05-16T17:59:53.015Z,1.88
2023-05-16T18:02:22.220Z,2.40
2023-05-16T18:04:50.108Z,1.88
2023-05-16T18:07:17.935Z,1.77
2023-05-16T18:09:45.949Z,1.90
2023-05-16T18:12:13.949Z,1.80
2023-05-16T18:14:44.494Z,2.08
2023-05-16T18:17:16.328Z,2.38
2023-05-16T18:19:52.761Z,2.00
2023-05-16T18:22:20.995Z,2.20
2023-05-16T18:24:51.257Z,2.28
2023-05-16T18:27:28.149Z,2.10
2023-05-16T18:29:58.343Z,2.13
2023-05-16T18:32:26.611Z,2.17
2023-05-16T18:34:57.348Z,2.10
2023-05-16T18:37:25.411Z,2.03
2023-05-16T18:39:57.375Z,2.40
2023-05-16T18:42:25.836Z,2.45
2023-05-16T18:44:56.587Z,2.25
2023-05-16T18:47:30.795Z,2.70
2023-05-16T18:50:00.271Z,2.28
2023-05-16T18:52:34.284Z,1.90
2023-05-16T18:55:02.018Z,2.35
2023-05-16T18:57:29.888Z,2.05
2023-05-16T18:59:58.242Z,2.00
2023-05-16T19:02:37.964Z,2.13
2023-05-16T19:05:11.454Z,2.03
2023-05-16T19:07:39.390Z,2.13
2023-05-16T19:10:08.955Z,3.70
2023-05-16T19:12:36.745Z,2.45
2023-05-16T19:15:05.096Z,2.22
2023-05-16T19:17:33.011Z,2.20
2023-05-16T19:20:01.767Z,2.20
2023-05-16T19:22:31.045Z,2.08
2023-05-16T19:24:58.860Z,1.90
2023-05-16T19:27:26.752Z,2.00
2023-05-16T19:29:54.537Z,2.00
2023-05-16T19:32:22.362Z,2.08
2023-05-16T19:34:50.324Z,1.83
2023-05-16T19:37:21.301Z,1.90
2023-05-16T19:39:50.477Z,2.03
2023-05-16T19:42:18.267Z,2.28
2023-05-16T19:44:47.246Z,2.17
2023-05-16T19:47:15.061Z,2.25
2023-05-16T19:49:44.089Z,1.83
2023-05-16T19:52:13.248Z,2.00
2023-05-16T19:54:41.333Z,1.83
2023-05-16T19:57:19.300Z,1.80
2023-05-16T19:59:48.659Z,2.03
2023-05-16T20:02:17.370Z,2.10
2023-05-16T20:04:46.065Z,1.70
2023-05-16T20:07:13.903Z,2.40
2023-05-16T20:09:43.444Z,1.83
2023-05-16T20:12:13.084Z,1.73
2023-05-16T20:14:42.081Z,1.90
2023-05-16T20:17:13.609Z,1.92
2023-05-16T20:19:43.893Z,1.60
2023-05-16T20:22:12.112Z,1.87
2023-05-16T20:24:39.951Z,1.87
2023-05-16T20:27:07.718Z,2.17
2023-05-16T20:29:36.927Z,2.07
2023-05-16T20:32:05.133Z,2.63
2023-05-16T20:34:32.954Z,2.00
2023-05-16T20:37:00.869Z,2.05
2023-05-16T20:39:28.943Z,2.40
2023-05-16T20:41:56.725Z,2.38
2023-05-16T20:44:28.908Z,1.90
2023-05-16T20:47:03.757Z,2.00
2023-05-16T20:49:31.596Z,2.15
2023-05-16T20:51:59.614Z,1.80
2023-05-16T20:54:29.348Z,2.10
2023-05-16T20:56:57.212Z,2.17
2023-05-16T20:59:25.085Z,2.35
2023-05-16T21:01:53.291Z,2.30
2023-05-16T21:04:22.541Z,1.83
2023-05-16T21:06:50.375Z,2.23
2023-05-16T21:09:18.260Z,2.07
2023-05-16T21:11:46.139Z,2.70
2023-05-16T21:14:14.087Z,2.30
2023-05-16T21:16:42.233Z,2.03
2023-05-16T21:19:10.189Z,2.22
2023-05-16T21:21:39.395Z,1.85
2023-05-16T21:24:10.490Z,1.90
2023-05-16T21:26:38.399Z,1.80
2023-05-16T21:29:06.692Z,1.73
2023-05-16T21:31:36.309Z,2.47
2023-05-16T21:34:04.245Z,1.92
2023-05-16T21:36:32.297Z,1.98
2023-05-16T21:39:04.594Z,1.80
2023-05-16T21:41:32.601Z,2.00
2023-05-16T21:44:00.431Z,1.75
2023-05-16T21:46:28.260Z,1.77
2023-05-16T21:48:57.805Z,1.83
2023-05-16T21:51:30.554Z,2.47
2023-05-16T21:54:03.191Z,1.83
2023-05-16T21:56:31.368Z,2.35
2023-05-16T21:58:59.225Z,2.30
2023-05-16T22:01:28.675Z,2.20
2023-05-16T22:03:57.369Z,2.65
2023-05-16T22:06:30.246Z,2.15
2023-05-16T22:08:58.496Z,2.20
2023-05-16T22:11:28.911Z,2.13
2023-05-16T22:13:56.808Z,2.08
2023-05-16T22:16:24.685Z,2.42
2023-05-16T22:18:52.823Z,2.45
2023-05-16T22:21:23.596Z,2.45
2023-05-16T22:23:54.717Z,2.22
2023-05-16T22:26:22.466Z,2.25
2023-05-16T22:28:51.604Z,2.25
2023-05-16T22:31:19.447Z,2.00
2023-05-16T22:33:51.859Z,2.00
2023-05-16T22:36:19.883Z,2.13
2023-05-16T22:38:50.668Z,2.20
2023-05-16T22:41:18.517Z,2.13
2023-05-16T22:43:48.821Z,2.00
2023-05-16T22:46:19.738Z,2.20
2023-05-16T22:48:47.797Z,2.25
2023-05-16T22:51:21.877Z,2.33
2023-05-16T22:53:51.828Z,2.10
2023-05-16T22:56:21.712Z,2.45
2023-05-16T22:58:49.870Z,1.70
2023-05-16T23:01:19.032Z,2.22
2023-05-16T23:03:47.172Z,1.98
2023-05-16T23:06:16.261Z,2.60
2023-05-16T23:08:44.057Z,2.17
2023-05-16T23:11:12.305Z,2.30
2023-05-16T23:13:40.060Z,2.72
2023-05-16T23:16:08.109Z,2.40
2023-05-16T23:18:37.375Z,2.45
2023-05-16T23:21:05.338Z,2.40
2023-05-16T23:23:33.087Z,2.72
2023-05-16T23:26:00.841Z,1.80
2023-05-16T23:28:28.601Z,2.23
2023-05-16T23:30:56.384Z,2.53
2023-05-16T23:33:24.179Z,2.13
2023-05-16T23:35:53.319Z,2.47
2023-05-16T23:38:22.304Z,2.72
2023-05-16T23:40:50.000Z,1.98
2023-05-16T23:43:17.751Z,2.33
2023-05-16T23:45:45.820Z,2.05
2023-05-16T23:48:13.777Z,1.95
2023-05-16T23:50:41.763Z,2.00
2023-05-16T23:53:10.956Z,2.50
2023-05-16T23:55:38.821Z,1.80
2023-05-16T23:58:06.740Z,2.33
